sensor_id;sensor_type;location;lat;lon;timestamp;pressure;altitude;pressure_sealevel;temperature;humidity
9935;BME280;5006;41.828;23.478;2023-02-18T00:00:53;91009.91;;;12.12;37.04
9935;BME280;5006;41.828;23.478;2023-02-18T00:02:01;91005.66;;;11.40;38.22
9935;BME280;5006;41.828;23.478;2023-02-18T00:03:05;91009.28;;;11.65;38.20
9935;BME280;5006;41.828;23.478;2023-02-18T00:04:10;91010.97;;;11.94;37.09
9935;BME280;5006;41.828;23.478;2023-02-18T00:05:15;91006.56;;;12.47;36.67
9935;BME280;5006;41.828;23.478;2023-02-18T00:06:23;91002.41;;;12.74;36.49
9935;BME280;5006;41.828;23.478;2023-02-18T00:07:32;91003.56;;;12.73;35.78
9935;BME280;5006;41.828;23.478;2023-02-18T00:08:38;91008.50;;;12.53;36.53
9935;BME280;5006;41.828;23.478;2023-02-18T00:09:44;91009.25;;;12.43;36.91
9935;BME280;5006;41.828;23.478;2023-02-18T00:10:50;90996.63;;;12.89;36.43
9935;BME280;5006;41.828;23.478;2023-02-18T00:11:54;91004.72;;;12.86;36.29
9935;BME280;5006;41.828;23.478;2023-02-18T00:13:00;91004.59;;;11.51;38.96
9935;BME280;5006;41.828;23.478;2023-02-18T00:14:07;90997.78;;;11.68;38.98
9935;BME280;5006;41.828;23.478;2023-02-18T00:15:13;90994.34;;;11.74;38.69
9935;BME280;5006;41.828;23.478;2023-02-18T00:16:18;90995.50;;;11.66;38.07
9935;BME280;5006;41.828;23.478;2023-02-18T00:17:23;90989.63;;;11.50;38.16
9935;BME280;5006;41.828;23.478;2023-02-18T00:18:29;90991.41;;;11.93;37.40
9935;BME280;5006;41.828;23.478;2023-02-18T00:19:35;90991.13;;;10.97;39.42
9935;BME280;5006;41.828;23.478;2023-02-18T00:20:40;90986.84;;;10.86;38.51
9935;BME280;5006;41.828;23.478;2023-02-18T00:21:46;90976.19;;;10.50;39.09
9935;BME280;5006;41.828;23.478;2023-02-18T00:22:52;90985.63;;;10.40;39.15
9935;BME280;5006;41.828;23.478;2023-02-18T00:23:56;90974.88;;;10.76;38.33
9935;BME280;5006;41.828;23.478;2023-02-18T00:25:04;90977.00;;;11.00;37.69
9935;BME280;5006;41.828;23.478;2023-02-18T00:26:13;90974.16;;;11.37;37.93
9935;BME280;5006;41.828;23.478;2023-02-18T00:27:18;90977.00;;;11.04;37.17
9935;BME280;5006;41.828;23.478;2023-02-18T00:28:23;90975.97;;;11.19;36.65
9935;BME280;5006;41.828;23.478;2023-02-18T00:29:29;90980.28;;;11.30;37.08
9935;BME280;5006;41.828;23.478;2023-02-18T00:30:33;90978.59;;;11.62;36.76
9935;BME280;5006;41.828;23.478;2023-02-18T00:31:39;90983.09;;;11.51;36.46
9935;BME280;5006;41.828;23.478;2023-02-18T00:32:44;90972.03;;;11.60;36.77
9935;BME280;5006;41.828;23.478;2023-02-18T00:33:50;90969.81;;;11.76;36.57
9935;BME280;5006;41.828;23.478;2023-02-18T00:34:55;90981.75;;;11.82;36.70
9935;BME280;5006;41.828;23.478;2023-02-18T00:36:02;90976.66;;;11.63;35.68
9935;BME280;5006;41.828;23.478;2023-02-18T00:37:06;90972.91;;;11.81;36.06
9935;BME280;5006;41.828;23.478;2023-02-18T00:38:12;90976.69;;;11.66;36.36
9935;BME280;5006;41.828;23.478;2023-02-18T00:39:17;90973.09;;;12.34;36.02
9935;BME280;5006;41.828;23.478;2023-02-18T00:40:24;90974.13;;;11.94;35.57
9935;BME280;5006;41.828;23.478;2023-02-18T00:41:30;90963.47;;;12.22;36.31
9935;BME280;5006;41.828;23.478;2023-02-18T00:42:36;90963.06;;;12.13;35.31
9935;BME280;5006;41.828;23.478;2023-02-18T00:43:41;90968.91;;;12.43;35.38
9935;BME280;5006;41.828;23.478;2023-02-18T00:44:47;90972.00;;;12.63;35.05
9935;BME280;5006;41.828;23.478;2023-02-18T00:45:52;90964.72;;;12.81;35.38
9935;BME280;5006;41.828;23.478;2023-02-18T00:46:58;90969.31;;;12.49;34.87
9935;BME280;5006;41.828;23.478;2023-02-18T00:48:04;90957.34;;;12.43;35.07
9935;BME280;5006;41.828;23.478;2023-02-18T00:49:09;90960.50;;;12.73;34.63
9935;BME280;5006;41.828;23.478;2023-02-18T00:50:14;90958.16;;;12.64;34.59
9935;BME280;5006;41.828;23.478;2023-02-18T00:51:20;90960.44;;;12.38;34.82
9935;BME280;5006;41.828;23.478;2023-02-18T00:52:25;90954.94;;;11.99;36.05
9935;BME280;5006;41.828;23.478;2023-02-18T00:53:31;90959.69;;;12.58;34.87
9935;BME280;5006;41.828;23.478;2023-02-18T00:54:36;90958.53;;;12.49;34.73
9935;BME280;5006;41.828;23.478;2023-02-18T00:55:44;90955.75;;;12.10;35.86
9935;BME280;5006;41.828;23.478;2023-02-18T00:56:51;90950.41;;;12.17;35.29
9935;BME280;5006;41.828;23.478;2023-02-18T00:57:57;90943.16;;;12.42;34.74
9935;BME280;5006;41.828;23.478;2023-02-18T00:59:02;90952.06;;;12.85;34.44
9935;BME280;5006;41.828;23.478;2023-02-18T01:00:08;90950.44;;;12.35;34.97
9935;BME280;5006;41.828;23.478;2023-02-18T01:01:14;90951.59;;;12.37;35.48
9935;BME280;5006;41.828;23.478;2023-02-18T01:02:19;90931.66;;;12.52;35.27
9935;BME280;5006;41.828;23.478;2023-02-18T01:03:24;90942.06;;;12.78;34.67
9935;BME280;5006;41.828;23.478;2023-02-18T01:04:30;90936.66;;;12.88;34.85
9935;BME280;5006;41.828;23.478;2023-02-18T01:05:36;90952.56;;;11.87;35.39
9935;BME280;5006;41.828;23.478;2023-02-18T01:06:43;90938.38;;;11.15;38.28
9935;BME280;5006;41.828;23.478;2023-02-18T01:07:48;90951.44;;;11.85;37.82
9935;BME280;5006;41.828;23.478;2023-02-18T01:08:54;90946.19;;;12.37;36.77
9935;BME280;5006;41.828;23.478;2023-02-18T01:09:59;90941.88;;;11.94;36.62
9935;BME280;5006;41.828;23.478;2023-02-18T01:11:08;90935.81;;;12.32;36.16
9935;BME280;5006;41.828;23.478;2023-02-18T01:12:13;90941.09;;;11.22;38.44
9935;BME280;5006;41.828;23.478;2023-02-18T01:13:19;90937.16;;;10.16;40.65
9935;BME280;5006;41.828;23.478;2023-02-18T01:14:24;90931.88;;;11.20;40.08
9935;BME280;5006;41.828;23.478;2023-02-18T01:15:30;90927.72;;;11.29;39.85
9935;BME280;5006;41.828;23.478;2023-02-18T01:16:35;90926.28;;;11.53;39.37
9935;BME280;5006;41.828;23.478;2023-02-18T01:17:41;90922.16;;;10.48;40.43
9935;BME280;5006;41.828;23.478;2023-02-18T01:18:46;90911.09;;;11.10;39.49
9935;BME280;5006;41.828;23.478;2023-02-18T01:19:52;90914.16;;;11.73;38.44
9935;BME280;5006;41.828;23.478;2023-02-18T01:20:57;90915.31;;;11.82;38.04
9935;BME280;5006;41.828;23.478;2023-02-18T01:22:03;90923.22;;;10.86;40.12
9935;BME280;5006;41.828;23.478;2023-02-18T01:23:10;90911.41;;;10.98;39.97
9935;BME280;5006;41.828;23.478;2023-02-18T01:24:16;90913.78;;;9.80;40.81
9935;BME280;5006;41.828;23.478;2023-02-18T01:25:20;90904.91;;;10.09;40.91
9935;BME280;5006;41.828;23.478;2023-02-18T01:26:27;90906.38;;;10.89;40.16
9935;BME280;5006;41.828;23.478;2023-02-18T01:27:32;90903.19;;;10.70;40.73
9935;BME280;5006;41.828;23.478;2023-02-18T01:28:39;90885.97;;;10.78;39.82
9935;BME280;5006;41.828;23.478;2023-02-18T01:29:44;90884.41;;;11.31;38.56
9935;BME280;5006;41.828;23.478;2023-02-18T01:30:50;90890.97;;;10.79;39.37
9935;BME280;5006;41.828;23.478;2023-02-18T01:31:55;90902.50;;;10.80;39.72
9935;BME280;5006;41.828;23.478;2023-02-18T01:33:01;90898.22;;;11.40;38.96
9935;BME280;5006;41.828;23.478;2023-02-18T01:34:05;90897.06;;;11.41;39.07
9935;BME280;5006;41.828;23.478;2023-02-18T01:35:12;90888.53;;;11.14;39.31
9935;BME280;5006;41.828;23.478;2023-02-18T01:36:17;90881.28;;;11.29;38.58
9935;BME280;5006;41.828;23.478;2023-02-18T01:37:23;90888.19;;;11.30;38.07
9935;BME280;5006;41.828;23.478;2023-02-18T01:38:28;90879.09;;;11.52;37.85
9935;BME280;5006;41.828;23.478;2023-02-18T01:39:34;90879.16;;;11.59;37.24
9935;BME280;5006;41.828;23.478;2023-02-18T01:40:44;90879.88;;;11.52;37.28
9935;BME280;5006;41.828;23.478;2023-02-18T01:41:52;90884.66;;;11.12;37.45
9935;BME280;5006;41.828;23.478;2023-02-18T01:42:58;90892.91;;;10.32;39.58
9935;BME280;5006;41.828;23.478;2023-02-18T01:44:16;90876.03;;;10.78;39.78
9935;BME280;5006;41.828;23.478;2023-02-18T01:45:46;90882.88;;;10.72;39.35
9935;BME280;5006;41.828;23.478;2023-02-18T01:46:54;90874.81;;;10.69;40.51
9935;BME280;5006;41.828;23.478;2023-02-18T01:48:02;90878.66;;;11.43;38.97
9935;BME280;5006;41.828;23.478;2023-02-18T01:49:11;90884.00;;;11.32;39.09
9935;BME280;5006;41.828;23.478;2023-02-18T01:50:18;90880.88;;;11.20;38.99
9935;BME280;5006;41.828;23.478;2023-02-18T01:51:25;90873.88;;;11.01;39.65
9935;BME280;5006;41.828;23.478;2023-02-18T01:52:32;90873.59;;;11.20;38.73
9935;BME280;5006;41.828;23.478;2023-02-18T01:53:43;90879.72;;;11.17;38.22
9935;BME280;5006;41.828;23.478;2023-02-18T01:54:52;90877.31;;;11.77;37.47
9935;BME280;5006;41.828;23.478;2023-02-18T01:56:00;90865.78;;;11.69;36.98
9935;BME280;5006;41.828;23.478;2023-02-18T01:57:10;90879.34;;;11.22;38.23
9935;BME280;5006;41.828;23.478;2023-02-18T01:58:17;90881.19;;;11.08;39.14
9935;BME280;5006;41.828;23.478;2023-02-18T01:59:25;90880.28;;;10.83;39.83
9935;BME280;5006;41.828;23.478;2023-02-18T02:00:32;90882.78;;;11.19;39.07
9935;BME280;5006;41.828;23.478;2023-02-18T02:01:38;90880.22;;;11.47;38.47
9935;BME280;5006;41.828;23.478;2023-02-18T02:02:47;90871.28;;;11.22;38.68
9935;BME280;5006;41.828;23.478;2023-02-18T02:03:53;90870.44;;;11.93;37.58
9935;BME280;5006;41.828;23.478;2023-02-18T02:04:58;90875.03;;;11.82;37.69
9935;BME280;5006;41.828;23.478;2023-02-18T02:06:08;90873.50;;;11.85;38.54
9935;BME280;5006;41.828;23.478;2023-02-18T02:07:20;90873.81;;;11.69;38.15
9935;BME280;5006;41.828;23.478;2023-02-18T02:08:26;90873.09;;;11.86;37.47
9935;BME280;5006;41.828;23.478;2023-02-18T02:09:33;90877.28;;;11.66;38.09
9935;BME280;5006;41.828;23.478;2023-02-18T02:10:46;90864.19;;;11.58;38.18
9935;BME280;5006;41.828;23.478;2023-02-18T02:12:16;90874.34;;;11.17;39.30
9935;BME280;5006;41.828;23.478;2023-02-18T02:13:32;90872.28;;;11.68;38.34
9935;BME280;5006;41.828;23.478;2023-02-18T02:14:56;90869.28;;;11.94;37.36
9935;BME280;5006;41.828;23.478;2023-02-18T02:16:09;90864.31;;;12.07;36.83
9935;BME280;5006;41.828;23.478;2023-02-18T02:17:25;90875.38;;;11.70;36.76
9935;BME280;5006;41.828;23.478;2023-02-18T02:18:46;90875.38;;;11.81;37.69
9935;BME280;5006;41.828;23.478;2023-02-18T02:20:19;90875.63;;;11.44;37.81
9935;BME280;5006;41.828;23.478;2023-02-18T02:21:56;90877.31;;;11.02;38.50
9935;BME280;5006;41.828;23.478;2023-02-18T02:23:50;90867.78;;;11.15;39.16
9935;BME280;5006;41.828;23.478;2023-02-18T02:25:07;90864.19;;;11.58;38.29
9935;BME280;5006;41.828;23.478;2023-02-18T02:26:59;90860.38;;;11.66;37.95
9935;BME280;5006;41.828;23.478;2023-02-18T02:28:38;90853.53;;;11.75;37.70
9935;BME280;5006;41.828;23.478;2023-02-18T02:30:10;90860.47;;;11.05;38.58
9935;BME280;5006;41.828;23.478;2023-02-18T02:33:29;90869.03;;;11.31;38.04
9935;BME280;5006;41.828;23.478;2023-02-18T02:34:51;90855.78;;;11.73;37.71
9935;BME280;5006;41.828;23.478;2023-02-18T02:36:02;90864.50;;;10.78;40.07
9935;BME280;5006;41.828;23.478;2023-02-18T02:37:14;90858.44;;;10.88;39.43
9935;BME280;5006;41.828;23.478;2023-02-18T02:38:24;90872.25;;;11.61;39.25
9935;BME280;5006;41.828;23.478;2023-02-18T02:39:38;90876.19;;;11.06;39.08
9935;BME280;5006;41.828;23.478;2023-02-18T02:40:53;90869.94;;;9.58;42.55
9935;BME280;5006;41.828;23.478;2023-02-18T02:42:09;90877.00;;;8.81;44.52
9935;BME280;5006;41.828;23.478;2023-02-18T02:43:28;90884.41;;;8.91;44.07
9935;BME280;5006;41.828;23.478;2023-02-18T02:44:41;90889.34;;;9.19;44.68
9935;BME280;5006;41.828;23.478;2023-02-18T02:45:55;90885.81;;;9.41;44.53
9935;BME280;5006;41.828;23.478;2023-02-18T02:47:10;90892.22;;;9.66;43.25
9935;BME280;5006;41.828;23.478;2023-02-18T02:48:27;90891.41;;;10.38;42.09
9935;BME280;5006;41.828;23.478;2023-02-18T02:49:37;90891.81;;;10.40;42.49
9935;BME280;5006;41.828;23.478;2023-02-18T02:50:52;90898.47;;;10.57;42.18
9935;BME280;5006;41.828;23.478;2023-02-18T02:52:02;90901.25;;;10.24;42.93
9935;BME280;5006;41.828;23.478;2023-02-18T02:53:13;90897.31;;;10.58;42.33
9935;BME280;5006;41.828;23.478;2023-02-18T02:54:22;90908.03;;;10.58;41.60
9935;BME280;5006;41.828;23.478;2023-02-18T02:55:27;90909.25;;;9.51;44.07
9935;BME280;5006;41.828;23.478;2023-02-18T02:56:34;90903.03;;;10.09;41.88
9935;BME280;5006;41.828;23.478;2023-02-18T02:57:45;90909.84;;;9.37;43.86
9935;BME280;5006;41.828;23.478;2023-02-18T02:58:59;90906.50;;;10.10;42.44
9935;BME280;5006;41.828;23.478;2023-02-18T03:00:13;90904.81;;;9.03;44.69
9935;BME280;5006;41.828;23.478;2023-02-18T03:01:32;90906.22;;;10.22;42.28
9935;BME280;5006;41.828;23.478;2023-02-18T03:02:52;90897.03;;;9.86;43.15
9935;BME280;5006;41.828;23.478;2023-02-18T03:05:52;90906.56;;;9.84;43.35
9935;BME280;5006;41.828;23.478;2023-02-18T03:08:40;90898.69;;;9.32;44.05
9935;BME280;5006;41.828;23.478;2023-02-18T03:10:06;90904.59;;;9.77;44.27
9935;BME280;5006;41.828;23.478;2023-02-18T03:11:14;90897.00;;;9.50;43.90
9935;BME280;5006;41.828;23.478;2023-02-18T03:12:26;90889.13;;;9.64;43.49
9935;BME280;5006;41.828;23.478;2023-02-18T03:13:44;90893.94;;;9.51;43.87
9935;BME280;5006;41.828;23.478;2023-02-18T03:15:03;90887.34;;;9.75;43.59
9935;BME280;5006;41.828;23.478;2023-02-18T03:16:14;90882.63;;;10.01;43.07
9935;BME280;5006;41.828;23.478;2023-02-18T03:17:25;90895.44;;;9.82;43.30
9935;BME280;5006;41.828;23.478;2023-02-18T03:18:35;90888.19;;;10.19;42.33
9935;BME280;5006;41.828;23.478;2023-02-18T03:19:46;90885.41;;;10.52;41.65
9935;BME280;5006;41.828;23.478;2023-02-18T03:20:56;90879.56;;;10.96;41.68
9935;BME280;5006;41.828;23.478;2023-02-18T03:22:06;90878.94;;;11.13;40.70
9935;BME280;5006;41.828;23.478;2023-02-18T03:23:16;90877.88;;;11.32;40.36
9935;BME280;5006;41.828;23.478;2023-02-18T03:24:29;90878.25;;;11.30;40.66
9935;BME280;5006;41.828;23.478;2023-02-18T03:25:35;90882.25;;;10.96;41.23
9935;BME280;5006;41.828;23.478;2023-02-18T03:26:46;90875.41;;;11.02;40.06
9935;BME280;5006;41.828;23.478;2023-02-18T03:27:52;90875.56;;;11.34;39.93
9935;BME280;5006;41.828;23.478;2023-02-18T03:29:03;90877.47;;;11.30;39.74
9935;BME280;5006;41.828;23.478;2023-02-18T03:30:15;90874.19;;;11.64;39.52
9935;BME280;5006;41.828;23.478;2023-02-18T03:31:24;90869.56;;;11.61;39.53
9935;BME280;5006;41.828;23.478;2023-02-18T03:32:32;90861.28;;;12.12;38.26
9935;BME280;5006;41.828;23.478;2023-02-18T03:33:43;90870.84;;;11.99;38.33
9935;BME280;5006;41.828;23.478;2023-02-18T03:34:53;90868.28;;;11.31;38.86
9935;BME280;5006;41.828;23.478;2023-02-18T03:36:02;90868.44;;;11.62;38.76
9935;BME280;5006;41.828;23.478;2023-02-18T03:37:08;90863.81;;;11.59;38.85
9935;BME280;5006;41.828;23.478;2023-02-18T03:38:17;90881.91;;;11.73;38.47
9935;BME280;5006;41.828;23.478;2023-02-18T03:39:27;90881.25;;;9.45;41.75
9935;BME280;5006;41.828;23.478;2023-02-18T03:40:32;90881.19;;;9.71;43.25
9935;BME280;5006;41.828;23.478;2023-02-18T03:41:39;90889.78;;;9.24;43.83
9935;BME280;5006;41.828;23.478;2023-02-18T03:42:44;90884.19;;;9.66;43.50
9935;BME280;5006;41.828;23.478;2023-02-18T03:43:50;90870.72;;;9.59;44.21
9935;BME280;5006;41.828;23.478;2023-02-18T03:44:55;90882.53;;;10.77;42.20
9935;BME280;5006;41.828;23.478;2023-02-18T03:46:02;90889.31;;;9.48;44.21
9935;BME280;5006;41.828;23.478;2023-02-18T03:47:07;90876.16;;;10.42;42.40
9935;BME280;5006;41.828;23.478;2023-02-18T03:48:13;90878.25;;;10.19;42.75
9935;BME280;5006;41.828;23.478;2023-02-18T03:49:18;90877.41;;;11.19;41.34
9935;BME280;5006;41.828;23.478;2023-02-18T03:50:25;90884.22;;;10.99;41.47
9935;BME280;5006;41.828;23.478;2023-02-18T03:51:31;90879.25;;;11.05;41.22
9935;BME280;5006;41.828;23.478;2023-02-18T03:52:37;90874.41;;;10.70;42.01
9935;BME280;5006;41.828;23.478;2023-02-18T03:53:43;90875.72;;;10.90;41.66
9935;BME280;5006;41.828;23.478;2023-02-18T03:54:50;90880.81;;;9.72;42.83
9935;BME280;5006;41.828;23.478;2023-02-18T03:55:54;90878.06;;;10.02;43.29
9935;BME280;5006;41.828;23.478;2023-02-18T03:57:00;90874.88;;;10.29;42.51
9935;BME280;5006;41.828;23.478;2023-02-18T03:58:04;90880.66;;;10.31;42.47
9935;BME280;5006;41.828;23.478;2023-02-18T03:59:11;90891.28;;;10.24;42.23
9935;BME280;5006;41.828;23.478;2023-02-18T04:00:16;90881.81;;;9.97;42.72
9935;BME280;5006;41.828;23.478;2023-02-18T04:01:22;90873.38;;;9.95;43.33
9935;BME280;5006;41.828;23.478;2023-02-18T04:02:27;90876.97;;;10.06;42.93
9935;BME280;5006;41.828;23.478;2023-02-18T04:03:33;90885.69;;;9.30;44.36
9935;BME280;5006;41.828;23.478;2023-02-18T04:04:38;90875.19;;;9.84;44.23
9935;BME280;5006;41.828;23.478;2023-02-18T04:05:43;90877.78;;;9.41;44.45
9935;BME280;5006;41.828;23.478;2023-02-18T04:06:50;90866.00;;;9.85;43.96
9935;BME280;5006;41.828;23.478;2023-02-18T04:07:55;90872.84;;;8.84;44.88
9935;BME280;5006;41.828;23.478;2023-02-18T04:09:00;90869.03;;;8.85;45.68
9935;BME280;5006;41.828;23.478;2023-02-18T04:10:12;90872.59;;;9.22;44.87
9935;BME280;5006;41.828;23.478;2023-02-18T04:11:16;90873.50;;;9.36;44.98
9935;BME280;5006;41.828;23.478;2023-02-18T04:12:22;90873.44;;;9.29;43.44
9935;BME280;5006;41.828;23.478;2023-02-18T04:13:28;90878.69;;;10.75;41.63
9935;BME280;5006;41.828;23.478;2023-02-18T04:14:34;90883.66;;;11.37;40.03
9935;BME280;5006;41.828;23.478;2023-02-18T04:15:38;90883.50;;;11.09;40.52
9935;BME280;5006;41.828;23.478;2023-02-18T04:16:44;90885.84;;;11.21;41.05
9935;BME280;5006;41.828;23.478;2023-02-18T04:17:49;90880.66;;;10.85;40.65
9935;BME280;5006;41.828;23.478;2023-02-18T04:18:54;90882.13;;;10.79;40.37
9935;BME280;5006;41.828;23.478;2023-02-18T04:19:59;90875.72;;;10.90;39.73
9935;BME280;5006;41.828;23.478;2023-02-18T04:21:05;90893.69;;;10.83;41.06
9935;BME280;5006;41.828;23.478;2023-02-18T04:22:11;90887.72;;;10.57;42.00
9935;BME280;5006;41.828;23.478;2023-02-18T04:23:17;90883.34;;;10.85;40.71
9935;BME280;5006;41.828;23.478;2023-02-18T04:24:21;90888.25;;;10.76;42.06
9935;BME280;5006;41.828;23.478;2023-02-18T04:25:27;90889.31;;;10.61;41.28
9935;BME280;5006;41.828;23.478;2023-02-18T04:26:33;90892.13;;;10.32;42.25
9935;BME280;5006;41.828;23.478;2023-02-18T04:27:38;90888.13;;;10.15;42.25
9935;BME280;5006;41.828;23.478;2023-02-18T04:28:43;90889.19;;;10.04;42.33
9935;BME280;5006;41.828;23.478;2023-02-18T04:29:48;90890.41;;;9.40;44.46
9935;BME280;5006;41.828;23.478;2023-02-18T04:30:54;90885.22;;;10.31;42.70
9935;BME280;5006;41.828;23.478;2023-02-18T04:31:58;90891.09;;;10.47;41.40
9935;BME280;5006;41.828;23.478;2023-02-18T04:33:04;90882.97;;;9.96;42.80
9935;BME280;5006;41.828;23.478;2023-02-18T04:34:09;90893.59;;;10.72;41.05
9935;BME280;5006;41.828;23.478;2023-02-18T04:35:14;90889.03;;;11.37;39.21
9935;BME280;5006;41.828;23.478;2023-02-18T04:36:19;90900.72;;;11.76;39.07
9935;BME280;5006;41.828;23.478;2023-02-18T04:37:26;90899.59;;;11.84;37.92
9935;BME280;5006;41.828;23.478;2023-02-18T04:38:31;90898.19;;;12.43;36.83
9935;BME280;5006;41.828;23.478;2023-02-18T04:39:36;90892.44;;;12.58;37.26
9935;BME280;5006;41.828;23.478;2023-02-18T04:40:41;90903.16;;;11.27;38.87
9935;BME280;5006;41.828;23.478;2023-02-18T04:41:46;90901.22;;;11.21;39.74
9935;BME280;5006;41.828;23.478;2023-02-18T04:42:52;90898.00;;;11.66;39.03
9935;BME280;5006;41.828;23.478;2023-02-18T04:43:56;90894.34;;;12.40;37.83
9935;BME280;5006;41.828;23.478;2023-02-18T04:45:03;90898.53;;;12.13;37.89
9935;BME280;5006;41.828;23.478;2023-02-18T04:46:07;90895.75;;;11.85;38.30
9935;BME280;5006;41.828;23.478;2023-02-18T04:47:13;90906.81;;;10.95;39.49
9935;BME280;5006;41.828;23.478;2023-02-18T04:48:17;90901.41;;;11.59;38.71
9935;BME280;5006;41.828;23.478;2023-02-18T04:49:23;90910.63;;;11.62;39.02
9935;BME280;5006;41.828;23.478;2023-02-18T04:50:28;90908.78;;;11.80;38.08
9935;BME280;5006;41.828;23.478;2023-02-18T04:51:33;90910.00;;;11.96;38.52
9935;BME280;5006;41.828;23.478;2023-02-18T04:52:40;90906.22;;;12.08;38.33
9935;BME280;5006;41.828;23.478;2023-02-18T04:53:46;90910.88;;;12.56;37.24
9935;BME280;5006;41.828;23.478;2023-02-18T04:54:51;90900.84;;;12.25;37.75
9935;BME280;5006;41.828;23.478;2023-02-18T04:55:56;90922.09;;;11.55;38.01
9935;BME280;5006;41.828;23.478;2023-02-18T04:57:02;90910.13;;;12.59;37.25
9935;BME280;5006;41.828;23.478;2023-02-18T04:58:07;90906.28;;;12.39;36.85
9935;BME280;5006;41.828;23.478;2023-02-18T04:59:14;90911.28;;;13.14;35.97
9935;BME280;5006;41.828;23.478;2023-02-18T05:00:19;90916.22;;;12.25;37.32
9935;BME280;5006;41.828;23.478;2023-02-18T05:01:25;90914.72;;;12.52;37.33
9935;BME280;5006;41.828;23.478;2023-02-18T05:02:30;90916.28;;;13.19;37.32
9935;BME280;5006;41.828;23.478;2023-02-18T05:03:36;90908.56;;;13.38;36.40
9935;BME280;5006;41.828;23.478;2023-02-18T05:04:40;90916.22;;;12.35;37.85
9935;BME280;5006;41.828;23.478;2023-02-18T05:05:46;90915.38;;;11.96;38.41
9935;BME280;5006;41.828;23.478;2023-02-18T05:06:50;90914.75;;;11.45;38.27
9935;BME280;5006;41.828;23.478;2023-02-18T05:07:57;90917.78;;;12.54;36.19
9935;BME280;5006;41.828;23.478;2023-02-18T05:09:02;90918.22;;;13.04;35.80
9935;BME280;5006;41.828;23.478;2023-02-18T05:10:09;90919.41;;;12.97;37.29
9935;BME280;5006;41.828;23.478;2023-02-18T05:11:14;90926.28;;;12.90;36.72
9935;BME280;5006;41.828;23.478;2023-02-18T05:12:20;90920.91;;;13.01;37.47
9935;BME280;5006;41.828;23.478;2023-02-18T05:13:25;90922.06;;;13.14;37.74
9935;BME280;5006;41.828;23.478;2023-02-18T05:14:31;90920.91;;;13.11;37.53
9935;BME280;5006;41.828;23.478;2023-02-18T05:15:35;90920.53;;;12.78;37.10
9935;BME280;5006;41.828;23.478;2023-02-18T05:16:41;90915.44;;;12.28;38.55
9935;BME280;5006;41.828;23.478;2023-02-18T05:17:45;90912.34;;;12.19;37.63
9935;BME280;5006;41.828;23.478;2023-02-18T05:18:51;90920.66;;;11.72;38.63
9935;BME280;5006;41.828;23.478;2023-02-18T05:19:56;90908.38;;;11.74;39.20
9935;BME280;5006;41.828;23.478;2023-02-18T05:21:02;90912.31;;;11.94;37.96
9935;BME280;5006;41.828;23.478;2023-02-18T05:22:07;90917.25;;;11.82;38.55
9935;BME280;5006;41.828;23.478;2023-02-18T05:23:14;90917.28;;;11.99;37.19
9935;BME280;5006;41.828;23.478;2023-02-18T05:24:20;90911.63;;;12.57;37.13
9935;BME280;5006;41.828;23.478;2023-02-18T05:25:26;90920.47;;;11.37;38.97
9935;BME280;5006;41.828;23.478;2023-02-18T05:26:30;90914.84;;;11.59;38.16
9935;BME280;5006;41.828;23.478;2023-02-18T05:27:36;90898.50;;;11.96;37.94
9935;BME280;5006;41.828;23.478;2023-02-18T05:28:41;90913.19;;;12.61;37.19
9935;BME280;5006;41.828;23.478;2023-02-18T05:29:46;90917.31;;;12.03;38.01
9935;BME280;5006;41.828;23.478;2023-02-18T05:30:51;90921.28;;;12.68;36.65
9935;BME280;5006;41.828;23.478;2023-02-18T05:31:56;90908.56;;;12.51;36.70
9935;BME280;5006;41.828;23.478;2023-02-18T05:33:01;90917.84;;;12.78;36.95
9935;BME280;5006;41.828;23.478;2023-02-18T05:34:08;90913.13;;;13.55;36.81
9935;BME280;5006;41.828;23.478;2023-02-18T05:35:13;90919.34;;;13.14;35.86
9935;BME280;5006;41.828;23.478;2023-02-18T05:36:18;90914.25;;;13.68;36.15
9935;BME280;5006;41.828;23.478;2023-02-18T05:37:23;90918.94;;;13.50;35.46
9935;BME280;5006;41.828;23.478;2023-02-18T05:38:30;90909.34;;;12.62;36.11
9935;BME280;5006;41.828;23.478;2023-02-18T05:39:35;90908.56;;;13.38;35.21
9935;BME280;5006;41.828;23.478;2023-02-18T05:40:40;90910.94;;;14.26;35.40
9935;BME280;5006;41.828;23.478;2023-02-18T05:41:45;90917.03;;;13.37;35.29
9935;BME280;5006;41.828;23.478;2023-02-18T05:42:51;90913.19;;;13.27;35.65
9935;BME280;5006;41.828;23.478;2023-02-18T05:43:55;90916.28;;;13.12;35.39
9935;BME280;5006;41.828;23.478;2023-02-18T05:45:18;90909.50;;;14.00;34.08
9935;BME280;5006;41.828;23.478;2023-02-18T05:46:24;90911.53;;;13.72;34.45
9935;BME280;5006;41.828;23.478;2023-02-18T05:47:29;90912.16;;;14.07;34.48
9935;BME280;5006;41.828;23.478;2023-02-18T05:48:35;90916.88;;;13.86;35.14
9935;BME280;5006;41.828;23.478;2023-02-18T05:49:41;90921.63;;;13.50;35.66
9935;BME280;5006;41.828;23.478;2023-02-18T05:50:46;90926.69;;;13.17;36.02
9935;BME280;5006;41.828;23.478;2023-02-18T05:51:51;90933.63;;;12.97;35.97
9935;BME280;5006;41.828;23.478;2023-02-18T05:52:57;90929.16;;;14.01;35.32
9935;BME280;5006;41.828;23.478;2023-02-18T05:54:03;90930.81;;;15.11;34.11
9935;BME280;5006;41.828;23.478;2023-02-18T05:55:10;90941.75;;;14.97;34.60
9935;BME280;5006;41.828;23.478;2023-02-18T05:56:14;90934.50;;;14.18;34.45
9935;BME280;5006;41.828;23.478;2023-02-18T05:57:20;90943.22;;;13.12;35.88
9935;BME280;5006;41.828;23.478;2023-02-18T05:58:25;90935.94;;;14.40;34.81
9935;BME280;5006;41.828;23.478;2023-02-18T05:59:30;90936.19;;;13.77;36.01
9935;BME280;5006;41.828;23.478;2023-02-18T06:00:36;90950.91;;;13.06;35.86
9935;BME280;5006;41.828;23.478;2023-02-18T06:01:41;90934.59;;;13.83;34.56
9935;BME280;5006;41.828;23.478;2023-02-18T06:02:47;90941.19;;;14.65;34.05
9935;BME280;5006;41.828;23.478;2023-02-18T06:03:51;90938.25;;;15.00;33.37
9935;BME280;5006;41.828;23.478;2023-02-18T06:04:57;90938.00;;;14.77;33.58
9935;BME280;5006;41.828;23.478;2023-02-18T06:06:01;90934.59;;;14.69;33.44
9935;BME280;5006;41.828;23.478;2023-02-18T06:07:07;90930.97;;;14.32;34.39
9935;BME280;5006;41.828;23.478;2023-02-18T06:08:12;90924.34;;;14.40;34.36
9935;BME280;5006;41.828;23.478;2023-02-18T06:09:19;90928.34;;;14.04;34.98
9935;BME280;5006;41.828;23.478;2023-02-18T06:10:24;90930.00;;;13.84;33.99
9935;BME280;5006;41.828;23.478;2023-02-18T06:11:30;90924.38;;;14.36;33.94